createdAt,value
2022-08-17T00:00:06.117Z,25.3
2022-08-17T00:04:01.177Z,28.5
2022-08-17T00:05:58.736Z,32
2022-08-17T00:07:56.235Z,27.5
2022-08-17T00:10:01.717Z,27.9
2022-08-17T00:12:41.080Z,28.1
2022-08-17T00:13:56.786Z,36.9
2022-08-17T00:15:54.334Z,30.9
2022-08-17T00:17:51.845Z,34.1
2022-08-17T00:19:49.379Z,23.8
2022-08-17T00:22:32.107Z,26.2
2022-08-17T00:23:52.402Z,28.8
2022-08-17T00:25:49.921Z,29.2
2022-08-17T00:27:47.478Z,43.1
2022-08-17T00:30:53.117Z,26.6
2022-08-17T00:33:11.985Z,43.6
2022-08-17T00:34:42.857Z,29.5
2022-08-17T00:36:48.372Z,27.4
2022-08-17T00:38:45.920Z,32.5
2022-08-17T00:40:44.769Z,36.9
2022-08-17T00:42:41.056Z,26.3
2022-08-17T00:44:38.589Z,27.1
2022-08-17T00:46:36.120Z,25.8
2022-08-17T00:50:39.154Z,24
2022-08-17T00:52:36.750Z,36.4
2022-08-17T00:54:34.273Z,27.9
2022-08-17T00:56:31.798Z,37
2022-08-17T00:58:36.325Z,30.5
2022-08-17T01:00:26.939Z,30.8
2022-08-17T01:04:29.947Z,30.7
2022-08-17T01:11:00.678Z,28.8
2022-08-17T01:12:20.119Z,33.5
2022-08-17T01:14:17.670Z,29.1
2022-08-17T01:16:15.271Z,28.1
2022-08-17T01:18:20.775Z,30.8
2022-08-17T01:20:18.345Z,28.3
2022-08-17T01:22:15.875Z,25.1
2022-08-17T01:24:33.720Z,56.1
2022-08-17T01:26:30.258Z,32.8
2022-08-17T01:28:52.490Z,36.4
2022-08-17T01:32:30.859Z,36
2022-08-17T01:34:42.939Z,30.2
2022-08-17T01:36:25.978Z,39.5
2022-08-17T01:38:27.103Z,34.1
2022-08-17T01:40:21.119Z,32.9
2022-08-17T01:42:18.675Z,31.5
2022-08-17T01:44:24.182Z,33.2
2022-08-17T01:50:16.818Z,35.4
2022-08-17T01:56:09.659Z,32.3
2022-08-17T01:58:15.023Z,42.2
2022-08-17T02:00:12.571Z,33.9
2022-08-17T02:02:10.162Z,40.6
2022-08-17T02:04:07.711Z,38.1
2022-08-17T02:06:05.400Z,34.6
2022-08-17T02:08:02.811Z,32.2
2022-08-17T02:10:00.383Z,40.3
2022-08-17T02:12:37.693Z,35
2022-08-17T02:14:04.137Z,37.6
2022-08-17T02:16:01.057Z,35.4
2022-08-17T02:17:03.830Z,45
2022-08-17T02:19:01.397Z,35.2
2022-08-17T02:20:58.972Z,31.1
2022-08-17T02:22:56.530Z,32.5
2022-08-17T02:25:02.590Z,48
2022-08-17T02:26:59.616Z,38.9
2022-08-17T02:28:57.177Z,52.9
2022-08-17T02:31:02.577Z,33.6
2022-08-17T02:32:52.317Z,35.8
2022-08-17T02:34:49.874Z,33.7
2022-08-17T02:36:47.434Z,36.7
2022-08-17T02:38:52.955Z,60.9
2022-08-17T02:44:45.641Z,37.6
2022-08-17T02:46:43.223Z,33.5
2022-08-17T02:48:40.766Z,36.6
2022-08-17T02:50:38.343Z,36
2022-08-17T02:52:44.174Z,32.4
2022-08-17T02:58:36.597Z,34.4
2022-08-17T03:02:31.743Z,46
2022-08-17T03:04:29.315Z,33.5
2022-08-17T03:08:32.428Z,33.8
2022-08-17T03:10:29.980Z,36.2
2022-08-17T03:11:32.753Z,35.6
2022-08-17T03:13:30.323Z,37.5
2022-08-17T03:15:27.898Z,40.3
2022-08-17T03:17:25.472Z,33.9
2022-08-17T03:19:30.995Z,34.7
2022-08-17T03:21:28.557Z,46.6
2022-08-17T03:23:26.131Z,35.5
2022-08-17T03:25:23.679Z,31.2
2022-08-17T03:27:21.242Z,51.6
2022-08-17T03:29:18.819Z,37.4
2022-08-17T03:31:16.389Z,36.1
2022-08-17T03:35:19.471Z,36.9
2022-08-17T03:39:14.713Z,42.9
2022-08-17T03:41:12.157Z,34.3
2022-08-17T03:43:09.724Z,34.9
2022-08-17T03:47:12.791Z,43.7
2022-08-17T03:49:10.402Z,37.1
2022-08-17T03:55:03.089Z,33.8
2022-08-17T03:58:58.234Z,33.7
2022-08-17T04:01:03.789Z,36.3
2022-08-17T04:06:01.638Z,37.3
2022-08-17T04:07:59.217Z,38
2022-08-17T04:09:58.428Z,39
2022-08-17T04:11:55.857Z,69.6
2022-08-17T04:14:01.390Z,36.9
2022-08-17T04:15:59.155Z,39.3
2022-08-17T04:17:56.538Z,34.1
2022-08-17T04:19:54.087Z,40.1
2022-08-17T04:21:51.692Z,42.3
2022-08-17T04:23:49.206Z,55.8
2022-08-17T04:25:46.768Z,50.3
2022-08-17T04:27:52.289Z,44.7
2022-08-17T04:35:42.534Z,41.6
2022-08-17T04:37:40.098Z,45.5
2022-08-17T04:39:37.755Z,40.4
2022-08-17T04:41:43.372Z,37.4
2022-08-17T04:55:34.055Z,40.6
2022-08-17T04:57:31.652Z,33.4
2022-08-17T04:59:29.221Z,45.6
2022-08-17T05:01:51.940Z,45.2
2022-08-17T05:07:52.621Z,41.5
2022-08-17T05:09:50.164Z,45.9
2022-08-17T05:11:47.754Z,38.9
2022-08-17T05:13:45.323Z,45.7
2022-08-17T05:15:45.184Z,38.1
2022-08-17T05:21:43.558Z,47.8
2022-08-17T05:27:36.270Z,45
2022-08-17T05:29:35.510Z,28.1
2022-08-17T05:31:31.437Z,35.6
2022-08-17T05:33:28.983Z,32.3
2022-08-17T05:35:34.528Z,30.8
2022-08-17T05:37:32.112Z,33.1
2022-08-17T05:39:29.857Z,50.2
2022-08-17T05:43:24.833Z,42.1
2022-08-17T05:45:54.603Z,44.5
2022-08-17T05:49:25.480Z,41.6
2022-08-17T05:54:23.435Z,57.9
2022-08-17T06:00:16.167Z,47.6
2022-08-17T06:02:21.750Z,56
2022-08-17T06:04:19.372Z,50.2
2022-08-17T06:08:14.540Z,51.5
2022-08-17T06:10:12.155Z,53.3
2022-08-17T06:12:09.722Z,52.5
2022-08-17T06:14:07.302Z,48.1
2022-08-17T06:16:25.922Z,76.8
2022-08-17T06:18:10.440Z,57.2
2022-08-17T06:20:08.034Z,52.1
2022-08-17T06:22:05.646Z,68.4
2022-08-17T06:24:03.260Z,55.2
2022-08-17T06:33:59.148Z,64.6
2022-08-17T06:35:56.720Z,53.5
2022-08-17T06:37:54.312Z,68.8
2022-08-17T06:39:51.953Z,58.2
2022-08-17T06:41:49.505Z,60.2
2022-08-17T06:43:55.060Z,53.5
2022-08-17T06:45:52.651Z,41.7
2022-08-17T06:47:50.233Z,43.7
2022-08-17T06:48:53.015Z,49.3
2022-08-17T06:54:45.770Z,46.6
2022-08-17T06:56:54.645Z,46
2022-08-17T06:58:48.874Z,54.4
2022-08-17T07:00:46.660Z,42.6
2022-08-17T07:02:51.610Z,53.9
2022-08-17T07:06:39.181Z,42
2022-08-17T07:08:36.771Z,43.6
2022-08-17T07:10:42.281Z,37
2022-08-17T07:16:35.027Z,33.5
2022-08-17T07:18:32.611Z,33.7
2022-08-17T07:20:30.176Z,37.8
2022-08-17T07:22:27.737Z,36.7
2022-08-17T07:24:33.275Z,35.7
2022-08-17T07:26:30.814Z,37.5
2022-08-17T07:28:28.423Z,27.6
2022-08-17T07:30:26.014Z,30.4
2022-08-17T07:32:23.617Z,29.5
2022-08-17T07:34:21.139Z,36.2
2022-08-17T07:36:18.689Z,33.1
2022-08-17T07:38:26.845Z,36.6
2022-08-17T07:40:21.816Z,25.2
2022-08-17T07:42:19.337Z,29.7
2022-08-17T07:43:23.639Z,31.8
2022-08-17T07:45:19.659Z,27.7
2022-08-17T07:53:17.778Z,30
2022-08-17T07:55:15.326Z,28
2022-08-17T08:01:07.943Z,34.1
2022-08-17T08:03:05.490Z,26.5
2022-08-17T08:05:10.976Z,31.8
2022-08-17T08:07:08.521Z,27.6
2022-08-17T08:09:06.039Z,25.9
2022-08-17T08:11:03.591Z,24
2022-08-17T08:13:01.156Z,36.7
2022-08-17T08:14:58.690Z,26.2
2022-08-17T08:16:56.212Z,23
2022-08-17T08:19:01.692Z,27.2
2022-08-17T08:22:56.732Z,26.2
2022-08-17T08:24:54.264Z,22.9
2022-08-17T08:26:51.779Z,26
2022-08-17T08:28:49.313Z,26.5
2022-08-17T08:32:52.311Z,24.5
2022-08-17T08:35:01.416Z,32.2
2022-08-17T08:36:56.954Z,29.6
2022-08-17T08:39:14.256Z,28.5
2022-08-17T08:45:14.805Z,29.3
2022-08-17T08:47:12.299Z,32.3
2022-08-17T08:55:02.470Z,25.5
2022-08-17T08:57:23.182Z,42.4
2022-08-17T08:59:05.430Z,30.1
2022-08-17T09:01:03.010Z,26.5
2022-08-17T09:03:00.471Z,39.9
2022-08-17T09:05:13.966Z,34.7
2022-08-17T09:06:55.509Z,36.7
2022-08-17T09:08:53.049Z,28
2022-08-17T09:10:50.545Z,41.7
2022-08-17T09:12:56.037Z,28.8
2022-08-17T09:14:53.550Z,25.7
2022-08-17T09:16:51.057Z,34.2
2022-08-17T09:19:00.613Z,36
2022-08-17T09:20:50.083Z,26
2022-08-17T09:22:43.534Z,25.4
2022-08-17T09:24:41.054Z,31.6
2022-08-17T09:26:46.672Z,22.6
2022-08-17T09:28:44.018Z,31
2022-08-17T09:30:41.515Z,31
2022-08-17T09:31:49.217Z,36.1
2022-08-17T09:33:41.765Z,27
2022-08-17T09:35:39.276Z,24.8
2022-08-17T09:37:36.744Z,34.6
2022-08-17T09:39:42.350Z,28.5
2022-08-17T09:41:39.707Z,37
2022-08-17T09:43:37.203Z,30.7
2022-08-17T09:45:34.670Z,25.9
2022-08-17T09:47:32.149Z,23.1
2022-08-17T09:49:29.647Z,23.5
2022-08-17T09:51:28.687Z,25.9
2022-08-17T09:53:34.087Z,27.9
2022-08-17T09:55:31.572Z,24.2
2022-08-17T09:57:31.073Z,21
2022-08-17T10:01:24.131Z,23.5
2022-08-17T10:05:18.914Z,27
2022-08-17T10:09:21.795Z,25
2022-08-17T10:11:33.346Z,27.9
2022-08-17T10:15:14.262Z,25.5
2022-08-17T10:17:11.728Z,30.2
2022-08-17T10:19:09.194Z,48.8
2022-08-17T10:21:14.618Z,28.8
2022-08-17T10:23:12.100Z,31.8
2022-08-17T10:25:22.066Z,29.8
2022-08-17T10:30:07.233Z,27.6
2022-08-17T10:32:04.701Z,36
2022-08-17T10:34:10.133Z,29.7
2022-08-17T10:36:10.703Z,30.6
2022-08-17T10:38:05.058Z,33.3
2022-08-17T10:40:02.661Z,48.9
2022-08-17T10:41:59.971Z,28.9
2022-08-17T10:44:37.131Z,32.5
2022-08-17T10:46:10.496Z,27.8
2022-08-17T10:48:05.075Z,27.9
2022-08-17T10:49:57.774Z,30.3
2022-08-17T10:51:55.225Z,28.3
2022-08-17T10:53:52.650Z,32.8
2022-08-17T10:55:50.132Z,29.4
2022-08-17T10:57:47.666Z,34.6
2022-08-17T10:59:45.029Z,31.7
2022-08-17T11:01:50.464Z,35.7
2022-08-17T11:03:47.915Z,26
2022-08-17T11:05:45.348Z,34.4
2022-08-17T11:07:42.785Z,26.7
2022-08-17T11:09:40.231Z,30.7
2022-08-17T11:11:37.667Z,44.1
2022-08-17T11:13:35.123Z,29.5
2022-08-17T11:15:40.569Z,32.6
2022-08-17T11:17:38.003Z,31.4
2022-08-17T11:19:35.467Z,31.1
2022-08-17T11:22:35.624Z,36
2022-08-17T11:24:33.091Z,31.5
2022-08-17T11:26:30.518Z,38.5
2022-08-17T11:30:33.402Z,28.6
2022-08-17T11:32:30.842Z,44.8
2022-08-17T11:34:28.283Z,31.1
2022-08-17T11:36:25.760Z,42.2
2022-08-17T11:38:23.194Z,45.1
2022-08-17T11:40:20.651Z,31.6
2022-08-17T11:46:20.999Z,34.5
2022-08-17T11:48:27.735Z,30.4
2022-08-17T11:50:15.888Z,29.4
2022-08-17T11:52:13.315Z,35.2
2022-08-17T11:54:31.679Z,36
2022-08-17T11:58:13.674Z,40.5
2022-08-17T12:00:11.154Z,44.8
2022-08-17T12:02:08.573Z,49.9
2022-08-17T12:04:06.089Z,45.2
2022-08-17T12:06:03.469Z,39.9
2022-08-17T12:08:00.946Z,37.8
2022-08-17T12:10:06.370Z,36.5
2022-08-17T12:12:13.207Z,42.2
2022-08-17T12:14:01.273Z,50.4
2022-08-17T12:16:28.097Z,36
2022-08-17T12:20:23.030Z,38.4
2022-08-17T12:22:28.476Z,39.6
2022-08-17T12:24:25.957Z,37.8
2022-08-17T12:26:23.437Z,41.3
2022-08-17T12:28:21.385Z,43.8
2022-08-17T12:30:18.383Z,45.2
2022-08-17T12:36:18.794Z,32.1
2022-08-17T12:40:13.877Z,52
2022-08-17T12:42:11.288Z,40.3
2022-08-17T12:44:08.755Z,37.6
2022-08-17T12:46:14.807Z,49.6
2022-08-17T12:48:03.757Z,45.1
2022-08-17T12:50:29.772Z,48.8
2022-08-17T12:52:06.689Z,43.5
2022-08-17T12:54:04.189Z,41.3
2022-08-17T12:56:01.656Z,48.1
2022-08-17T12:57:59.139Z,49.8
2022-08-17T12:59:56.656Z,46.2
2022-08-17T13:01:54.230Z,49.3
2022-08-17T13:03:59.665Z,55.2
2022-08-17T13:05:57.116Z,57.6
2022-08-17T13:07:54.602Z,47.2
2022-08-17T13:08:57.334Z,35.1
2022-08-17T13:10:54.840Z,41.2
2022-08-17T13:12:52.354Z,46.3
2022-08-17T13:14:49.831Z,45.6
2022-08-17T13:16:55.325Z,39.9
2022-08-17T13:18:52.836Z,46
2022-08-17T13:20:50.325Z,47.8
2022-08-17T13:22:47.879Z,49.7
2022-08-17T13:24:45.364Z,42
2022-08-17T13:26:42.885Z,49
2022-08-17T13:28:40.385Z,47.3
2022-08-17T13:30:45.862Z,45
2022-08-17T13:32:43.928Z,39.5
2022-08-17T13:34:59.622Z,43.9
2022-08-17T13:36:38.436Z,58.3
2022-08-17T13:38:35.965Z,50.7
2022-08-17T13:40:33.498Z,46.4
2022-08-17T13:44:36.511Z,53.4
2022-08-17T13:46:34.023Z,46.9
2022-08-17T13:48:31.548Z,45.1
2022-08-17T13:50:29.058Z,53.8
2022-08-17T13:52:26.605Z,44.4
2022-08-17T13:54:24.145Z,47.1
2022-08-17T13:56:37.983Z,49.6
2022-08-17T13:58:27.163Z,56.6
2022-08-17T14:00:24.671Z,42.8
2022-08-17T14:02:22.203Z,46.7
2022-08-17T14:05:22.465Z,48.3
2022-08-17T14:07:19.983Z,52.5
2022-08-17T14:09:17.498Z,50.8
2022-08-17T14:15:18.081Z,54.4
2022-08-17T14:17:15.607Z,58.2
2022-08-17T14:19:13.111Z,50.7
2022-08-17T14:21:10.669Z,55.2
2022-08-17T14:23:08.188Z,58.3
2022-08-17T14:25:13.678Z,50.8
2022-08-17T14:27:11.209Z,62.2
2022-08-17T14:29:15.233Z,53.9
2022-08-17T14:31:06.260Z,45.5
2022-08-17T14:33:03.794Z,47.3
2022-08-17T14:35:01.329Z,55.7
2022-08-17T14:36:58.826Z,58.7
2022-08-17T14:39:04.315Z,58.1
2022-08-17T14:41:01.845Z,53.8
2022-08-17T14:42:59.354Z,65.7
2022-08-17T14:44:56.897Z,60.7
2022-08-17T14:48:57.003Z,61.4
2022-08-17T14:50:49.494Z,63.2
2022-08-17T14:52:55.026Z,80.4
2022-08-17T14:54:52.498Z,49.8
2022-08-17T14:56:57.033Z,53.3
2022-08-17T14:57:52.958Z,56
2022-08-17T15:03:45.371Z,51.7
2022-08-17T15:07:48.354Z,48.2
2022-08-17T15:09:45.876Z,40.9
2022-08-17T15:11:43.413Z,47
2022-08-17T15:13:52.516Z,53
2022-08-17T15:15:38.471Z,48.2
2022-08-17T15:19:41.469Z,46.5
2022-08-17T15:21:38.973Z,50.8
2022-08-17T15:27:32.363Z,39.9
2022-08-17T15:29:29.021Z,41.5
2022-08-17T15:33:33.561Z,31.8
2022-08-17T15:35:31.050Z,33.6
2022-08-17T15:37:28.527Z,30.6
2022-08-17T15:39:26.044Z,31.6
2022-08-17T15:45:18.686Z,43.9
2022-08-17T15:47:23.950Z,26.1
2022-08-17T15:49:21.449Z,28.8
2022-08-17T15:51:18.920Z,36.3
2022-08-17T15:53:41.672Z,41.9
2022-08-17T15:55:39.614Z,38.1
2022-08-17T15:57:36.642Z,41.4
2022-08-17T15:59:42.114Z,44.1
2022-08-17T16:03:01.604Z,38.2
2022-08-17T16:03:58.071Z,41.3
2022-08-17T16:05:34.666Z,39.5
2022-08-17T16:07:32.063Z,43.1
2022-08-17T16:09:29.562Z,46.7
2022-08-17T16:11:27.063Z,47.1
2022-08-17T16:13:32.519Z,50.1
2022-08-17T16:15:30.031Z,46.5
2022-08-17T16:17:39.052Z,48.4
2022-08-17T16:19:25.003Z,55.8
2022-08-17T16:21:22.533Z,52.9
2022-08-17T16:23:20.287Z,64.4
2022-08-17T16:25:17.569Z,54.2
2022-08-17T16:27:23.062Z,56
2022-08-17T16:29:20.539Z,46.1
2022-08-17T16:31:18.058Z,48.2
2022-08-17T16:37:10.609Z,60.3
2022-08-17T16:39:08.128Z,57.5
2022-08-17T16:41:13.621Z,54.5
2022-08-17T16:43:11.124Z,56.1
2022-08-17T16:45:08.721Z,59.2
2022-08-17T16:46:11.383Z,57.9
2022-08-17T16:48:08.894Z,58.4
2022-08-17T16:50:06.424Z,53.3
2022-08-17T16:52:04.014Z,51.7
2022-08-17T16:54:09.483Z,72.8
2022-08-17T16:56:07.005Z,59.6
2022-08-17T17:00:02.019Z,56.9
2022-08-17T17:01:59.531Z,62.4
2022-08-17T17:03:58.388Z,54.2
2022-08-17T17:08:00.112Z,57.9
2022-08-17T17:09:57.592Z,56.9
2022-08-17T17:15:50.141Z,56.4
2022-08-17T17:17:47.665Z,51.6
2022-08-17T17:19:45.215Z,49.1
2022-08-17T17:23:48.235Z,44
2022-08-17T17:27:43.263Z,46.3
2022-08-17T17:31:38.296Z,45.5
2022-08-17T17:33:36.216Z,58.7
2022-08-17T17:35:41.301Z,39.8
2022-08-17T17:37:38.840Z,32.3
2022-08-17T17:39:36.389Z,41.5
2022-08-17T17:42:36.659Z,34.7
2022-08-17T17:44:34.187Z,29.4
2022-08-17T17:46:31.741Z,30.3
2022-08-17T17:48:37.253Z,43.2
2022-08-17T17:50:34.744Z,32.9
2022-08-17T17:52:32.276Z,41
2022-08-17T17:54:29.802Z,42.1
2022-08-17T17:56:43.286Z,41.9
2022-08-17T17:58:24.861Z,41.3
2022-08-17T18:00:22.389Z,48.6
2022-08-17T18:02:27.894Z,41.6
2022-08-17T18:06:22.934Z,47.1
2022-08-17T18:08:20.448Z,47
2022-08-17T18:10:29.483Z,49.7
2022-08-17T18:12:15.503Z,38.4
2022-08-17T18:14:13.030Z,36.4
2022-08-17T18:16:18.574Z,40
2022-08-17T18:20:13.622Z,42.1
2022-08-17T18:22:14.410Z,37.5
2022-08-17T18:24:08.672Z,35.3
2022-08-17T18:26:06.229Z,48.5
2022-08-17T18:28:03.778Z,38.2
2022-08-17T18:30:09.460Z,58.3
2022-08-17T18:32:06.852Z,45.2
2022-08-17T18:34:04.410Z,49.5
2022-08-17T18:35:07.171Z,47.7
2022-08-17T18:37:04.688Z,41.7
2022-08-17T18:39:02.294Z,43.4
2022-08-17T18:40:59.791Z,38.3
2022-08-17T18:45:02.914Z,35.2
2022-08-17T18:47:00.438Z,36.4
2022-08-17T18:50:55.517Z,42.8
2022-08-17T18:52:53.094Z,44.6
2022-08-17T18:54:50.590Z,43.5
2022-08-17T18:56:56.153Z,36.9
2022-08-17T18:58:53.639Z,53
2022-08-17T19:00:51.242Z,32.6
2022-08-17T19:02:48.835Z,40.5
2022-08-17T19:04:46.328Z,38.2
2022-08-17T19:06:43.829Z,43.9
2022-08-17T19:08:41.441Z,41.9
2022-08-17T19:10:47.359Z,35.8
2022-08-17T19:12:44.525Z,42.2
2022-08-17T19:14:42.056Z,36.2
2022-08-17T19:16:39.558Z,42.4
2022-08-17T19:18:37.140Z,47.1
2022-08-17T19:20:34.642Z,42.1
2022-08-17T19:22:32.207Z,40.4
2022-08-17T19:24:37.774Z,40.5
2022-08-17T19:26:54.550Z,41.8
2022-08-17T19:28:32.826Z,48.1
2022-08-17T19:30:53.715Z,44.9
2022-08-17T19:32:51.233Z,49.7
2022-08-17T19:34:48.839Z,57.7
2022-08-17T19:36:54.354Z,54.3
2022-08-17T19:38:51.854Z,46
2022-08-17T19:40:53.933Z,42.4
2022-08-17T19:42:46.937Z,50
2022-08-17T19:46:49.970Z,50.6
2022-08-17T19:48:39.642Z,59.2
2022-08-17T20:00:32.946Z,57.7
2022-08-17T20:02:30.459Z,59.7
2022-08-17T20:08:31.100Z,58.8
2022-08-17T20:10:28.660Z,62.2
2022-08-17T20:12:26.215Z,61.3
2022-08-17T20:14:23.774Z,56.2
2022-08-17T20:16:21.314Z,59.3
2022-08-17T20:18:26.853Z,59.3
2022-08-17T20:20:24.401Z,56
2022-08-17T20:22:21.941Z,48.4
2022-08-17T20:23:24.739Z,47
2022-08-17T20:25:23.106Z,48.4
2022-08-17T20:27:19.817Z,46.2
2022-08-17T20:29:17.385Z,54.3
2022-08-17T20:31:25.499Z,46
2022-08-17T20:33:20.418Z,53.1
2022-08-17T20:35:17.961Z,46.3
2022-08-17T20:37:15.537Z,47.7
2022-08-17T20:39:13.074Z,47.1
2022-08-17T20:41:10.640Z,40.4
2022-08-17T20:43:08.214Z,53.5
2022-08-17T20:49:08.851Z,49.5
2022-08-17T20:55:01.455Z,39.4
2022-08-17T20:56:58.987Z,39.5
2022-08-17T20:59:04.504Z,46.5
2022-08-17T21:01:02.107Z,55.1
2022-08-17T21:02:59.598Z,46.4
2022-08-17T21:04:57.124Z,46.7
2022-08-17T21:06:54.707Z,42.3
2022-08-17T21:08:52.267Z,47.5
2022-08-17T21:10:49.801Z,42.8
2022-08-17T21:12:56.903Z,45.6
2022-08-17T21:14:54.408Z,48.6
2022-08-17T21:16:51.962Z,38.9
2022-08-17T21:20:10.466Z,33.6
2022-08-17T21:21:49.820Z,40.9
2022-08-17T21:23:47.391Z,41.7
2022-08-17T21:25:52.908Z,38.8
2022-08-17T21:27:50.594Z,43.3
2022-08-17T21:29:48.008Z,42.2
2022-08-17T21:37:38.235Z,34.3
2022-08-17T21:41:41.331Z,35.7
2022-08-17T21:43:38.881Z,48.8
2022-08-17T21:45:36.445Z,38.5
2022-08-17T21:47:34.001Z,38.1
2022-08-17T21:49:31.539Z,43.9
2022-08-17T21:51:29.131Z,42.6
2022-08-17T21:53:34.608Z,41.4
2022-08-17T21:55:32.167Z,43.1
2022-08-17T21:57:29.731Z,37.8
2022-08-17T21:59:27.298Z,40.7
2022-08-17T22:03:22.391Z,38.8
2022-08-17T22:05:19.992Z,42.3
2022-08-17T22:09:23.036Z,34.6
2022-08-17T22:12:23.351Z,30.1
2022-08-17T22:14:20.963Z,27.8
2022-08-17T22:16:29.498Z,30.7
2022-08-17T22:20:21.571Z,33.8
2022-08-17T22:24:16.698Z,28.2
2022-08-17T22:26:14.271Z,31.4
2022-08-17T22:30:09.412Z,30
2022-08-17T22:32:07.005Z,28.2
2022-08-17T22:34:12.506Z,31.6
2022-08-17T22:38:07.603Z,34.6
2022-08-17T22:40:05.298Z,41.5
2022-08-17T22:42:02.829Z,24.9
2022-08-17T22:44:00.312Z,33.2
2022-08-17T22:45:57.872Z,41.3
2022-08-17T22:48:03.416Z,30.6
2022-08-17T22:50:01.000Z,36.1
2022-08-17T22:51:58.559Z,34.9
2022-08-17T22:55:53.678Z,24.3
2022-08-17T22:57:51.453Z,47.7
2022-08-17T22:59:48.840Z,35
2022-08-17T23:01:54.366Z,25.4
2022-08-17T23:05:49.532Z,23.5
2022-08-17T23:12:11.592Z,22.8
2022-08-17T23:14:17.163Z,23.7
2022-08-17T23:16:14.739Z,28.1
2022-08-17T23:18:12.293Z,28.3
2022-08-17T23:20:09.858Z,26.3
2022-08-17T23:22:07.438Z,26.8
2022-08-17T23:26:02.553Z,27.6
2022-08-17T23:28:08.080Z,29.3
2022-08-17T23:34:00.772Z,28.2
2022-08-17T23:35:58.332Z,24.9
2022-08-17T23:37:55.899Z,23.1
2022-08-17T23:39:53.514Z,20.4
2022-08-17T23:41:59.012Z,22
2022-08-17T23:45:54.254Z,22.1
2022-08-17T23:47:51.865Z,26.1
2022-08-17T23:51:46.886Z,23.7
2022-08-17T23:56:03.699Z,22
2022-08-17T23:57:47.694Z,24.1
